sensor_id;sensor_type;location;lat;lon;timestamp;P1;durP1;ratioP1;P2;durP2;ratioP2
18796;SDS011;9526;52.612;13.300;2023-04-15T00:01:33;63.55;;;26.42;;
18796;SDS011;9526;52.612;13.300;2023-04-15T00:03:57;59.30;;;25.58;;
18796;SDS011;9526;52.612;13.300;2023-04-15T00:06:21;59.53;;;26.33;;
18796;SDS011;9526;52.612;13.300;2023-04-15T00:08:45;61.15;;;27.00;;
18796;SDS011;9526;52.612;13.300;2023-04-15T00:11:09;71.32;;;28.67;;
18796;SDS011;9526;52.612;13.300;2023-04-15T00:13:32;66.32;;;28.20;;
18796;SDS011;9526;52.612;13.300;2023-04-15T00:15:58;64.28;;;28.52;;
18796;SDS011;9526;52.612;13.300;2023-04-15T00:18:22;62.85;;;28.05;;
18796;SDS011;9526;52.612;13.300;2023-04-15T00:20:46;64.00;;;28.40;;
18796;SDS011;9526;52.612;13.300;2023-04-15T00:23:10;66.07;;;28.58;;
18796;SDS011;9526;52.612;13.300;2023-04-15T00:25:34;61.88;;;27.85;;
18796;SDS011;9526;52.612;13.300;2023-04-15T00:27:57;64.07;;;27.08;;
18796;SDS011;9526;52.612;13.300;2023-04-15T00:30:21;65.93;;;28.75;;
18796;SDS011;9526;52.612;13.300;2023-04-15T00:32:47;67.97;;;27.67;;
18796;SDS011;9526;52.612;13.300;2023-04-15T00:35:14;74.63;;;30.48;;
18796;SDS011;9526;52.612;13.300;2023-04-15T00:37:38;66.95;;;29.48;;
18796;SDS011;9526;52.612;13.300;2023-04-15T00:40:06;70.07;;;30.85;;
18796;SDS011;9526;52.612;13.300;2023-04-15T00:42:34;68.18;;;30.10;;
18796;SDS011;9526;52.612;13.300;2023-04-15T00:44:58;71.07;;;29.85;;
18796;SDS011;9526;52.612;13.300;2023-04-15T00:47:22;71.53;;;31.23;;
18796;SDS011;9526;52.612;13.300;2023-04-15T00:49:47;72.53;;;30.83;;
18796;SDS011;9526;52.612;13.300;2023-04-15T00:52:11;86.32;;;32.17;;
18796;SDS011;9526;52.612;13.300;2023-04-15T00:54:35;71.63;;;29.48;;
18796;SDS011;9526;52.612;13.300;2023-04-15T00:56:59;73.03;;;31.92;;
18796;SDS011;9526;52.612;13.300;2023-04-15T00:59:24;83.28;;;31.88;;
18796;SDS011;9526;52.612;13.300;2023-04-15T01:01:47;78.32;;;32.58;;
18796;SDS011;9526;52.612;13.300;2023-04-15T01:04:12;81.70;;;34.47;;
18796;SDS011;9526;52.612;13.300;2023-04-15T01:06:37;80.63;;;32.33;;
18796;SDS011;9526;52.612;13.300;2023-04-15T01:09:01;78.80;;;30.95;;
18796;SDS011;9526;52.612;13.300;2023-04-15T01:11:25;89.70;;;33.97;;
18796;SDS011;9526;52.612;13.300;2023-04-15T01:13:49;91.28;;;34.58;;
18796;SDS011;9526;52.612;13.300;2023-04-15T01:16:13;94.25;;;33.40;;
18796;SDS011;9526;52.612;13.300;2023-04-15T01:18:38;91.55;;;35.63;;
18796;SDS011;9526;52.612;13.300;2023-04-15T01:21:02;83.53;;;32.33;;
18796;SDS011;9526;52.612;13.300;2023-04-15T01:23:30;88.65;;;33.47;;
18796;SDS011;9526;52.612;13.300;2023-04-15T01:25:55;87.15;;;34.65;;
18796;SDS011;9526;52.612;13.300;2023-04-15T01:28:20;90.85;;;34.72;;
18796;SDS011;9526;52.612;13.300;2023-04-15T01:30:44;98.50;;;36.47;;
18796;SDS011;9526;52.612;13.300;2023-04-15T01:33:08;95.07;;;35.00;;
18796;SDS011;9526;52.612;13.300;2023-04-15T01:35:32;93.03;;;35.20;;
18796;SDS011;9526;52.612;13.300;2023-04-15T01:37:57;103.45;;;37.42;;
18796;SDS011;9526;52.612;13.300;2023-04-15T01:40:27;92.03;;;35.90;;
18796;SDS011;9526;52.612;13.300;2023-04-15T01:42:53;92.85;;;36.13;;
18796;SDS011;9526;52.612;13.300;2023-04-15T01:45:17;106.30;;;36.85;;
18796;SDS011;9526;52.612;13.300;2023-04-15T01:47:40;94.97;;;34.85;;
18796;SDS011;9526;52.612;13.300;2023-04-15T01:50:05;108.22;;;36.55;;
18796;SDS011;9526;52.612;13.300;2023-04-15T01:52:30;98.43;;;35.60;;
18796;SDS011;9526;52.612;13.300;2023-04-15T01:54:53;97.25;;;36.65;;
18796;SDS011;9526;52.612;13.300;2023-04-15T01:57:17;88.93;;;36.38;;
18796;SDS011;9526;52.612;13.300;2023-04-15T01:59:42;102.30;;;36.17;;
18796;SDS011;9526;52.612;13.300;2023-04-15T02:02:06;92.85;;;35.60;;
18796;SDS011;9526;52.612;13.300;2023-04-15T02:04:31;102.93;;;36.63;;
18796;SDS011;9526;52.612;13.300;2023-04-15T02:06:54;99.00;;;37.58;;
18796;SDS011;9526;52.612;13.300;2023-04-15T02:09:18;102.03;;;37.15;;
18796;SDS011;9526;52.612;13.300;2023-04-15T02:11:42;100.22;;;36.63;;
18796;SDS011;9526;52.612;13.300;2023-04-15T02:14:05;107.13;;;37.15;;
18796;SDS011;9526;52.612;13.300;2023-04-15T02:16:31;103.40;;;36.28;;
18796;SDS011;9526;52.612;13.300;2023-04-15T02:18:55;103.72;;;36.40;;
18796;SDS011;9526;52.612;13.300;2023-04-15T02:21:19;104.00;;;36.50;;
18796;SDS011;9526;52.612;13.300;2023-04-15T02:23:43;109.40;;;37.80;;
18796;SDS011;9526;52.612;13.300;2023-04-15T02:26:08;105.47;;;36.30;;
18796;SDS011;9526;52.612;13.300;2023-04-15T02:28:32;98.97;;;35.72;;
18796;SDS011;9526;52.612;13.300;2023-04-15T02:30:56;99.45;;;34.90;;
18796;SDS011;9526;52.612;13.300;2023-04-15T02:33:21;106.32;;;36.67;;
18796;SDS011;9526;52.612;13.300;2023-04-15T02:35:45;100.10;;;37.47;;
18796;SDS011;9526;52.612;13.300;2023-04-15T02:38:09;97.50;;;36.33;;
18796;SDS011;9526;52.612;13.300;2023-04-15T02:40:33;100.93;;;36.90;;
18796;SDS011;9526;52.612;13.300;2023-04-15T02:42:56;88.30;;;34.13;;
18796;SDS011;9526;52.612;13.300;2023-04-15T02:45:22;102.05;;;35.05;;
18796;SDS011;9526;52.612;13.300;2023-04-15T02:47:48;103.75;;;36.50;;
18796;SDS011;9526;52.612;13.300;2023-04-15T02:50:13;103.32;;;36.40;;
18796;SDS011;9526;52.612;13.300;2023-04-15T02:52:38;94.95;;;37.50;;
18796;SDS011;9526;52.612;13.300;2023-04-15T02:55:03;104.70;;;36.17;;
18796;SDS011;9526;52.612;13.300;2023-04-15T02:57:29;106.43;;;38.08;;
18796;SDS011;9526;52.612;13.300;2023-04-15T02:59:58;99.45;;;36.78;;
18796;SDS011;9526;52.612;13.300;2023-04-15T03:02:22;104.70;;;35.67;;
18796;SDS011;9526;52.612;13.300;2023-04-15T03:04:46;103.40;;;37.20;;
18796;SDS011;9526;52.612;13.300;2023-04-15T03:07:12;87.75;;;35.38;;
18796;SDS011;9526;52.612;13.300;2023-04-15T03:09:35;98.45;;;36.45;;
18796;SDS011;9526;52.612;13.300;2023-04-15T03:12:01;102.55;;;36.08;;
18796;SDS011;9526;52.612;13.300;2023-04-15T03:14:25;94.85;;;36.00;;
18796;SDS011;9526;52.612;13.300;2023-04-15T03:16:48;105.10;;;37.53;;
18796;SDS011;9526;52.612;13.300;2023-04-15T03:19:12;93.82;;;34.92;;
18796;SDS011;9526;52.612;13.300;2023-04-15T03:21:37;100.43;;;36.30;;
18796;SDS011;9526;52.612;13.300;2023-04-15T03:24:03;95.15;;;36.17;;
18796;SDS011;9526;52.612;13.300;2023-04-15T03:26:28;90.43;;;34.53;;
18796;SDS011;9526;52.612;13.300;2023-04-15T03:28:56;89.97;;;35.08;;
18796;SDS011;9526;52.612;13.300;2023-04-15T03:31:20;93.95;;;35.75;;
18796;SDS011;9526;52.612;13.300;2023-04-15T03:33:44;88.55;;;34.70;;
18796;SDS011;9526;52.612;13.300;2023-04-15T03:36:08;92.10;;;36.17;;
18796;SDS011;9526;52.612;13.300;2023-04-15T03:38:31;91.80;;;36.13;;
18796;SDS011;9526;52.612;13.300;2023-04-15T03:40:56;95.35;;;35.33;;
18796;SDS011;9526;52.612;13.300;2023-04-15T03:43:20;88.50;;;34.35;;
18796;SDS011;9526;52.612;13.300;2023-04-15T03:45:43;89.78;;;34.55;;
18796;SDS011;9526;52.612;13.300;2023-04-15T03:48:07;93.68;;;35.55;;
18796;SDS011;9526;52.612;13.300;2023-04-15T03:50:38;90.50;;;34.33;;
18796;SDS011;9526;52.612;13.300;2023-04-15T03:53:02;88.20;;;34.08;;
18796;SDS011;9526;52.612;13.300;2023-04-15T03:55:25;97.30;;;35.78;;
18796;SDS011;9526;52.612;13.300;2023-04-15T03:57:50;88.00;;;34.95;;
18796;SDS011;9526;52.612;13.300;2023-04-15T04:00:14;84.47;;;33.30;;
18796;SDS011;9526;52.612;13.300;2023-04-15T04:02:38;90.85;;;35.40;;
18796;SDS011;9526;52.612;13.300;2023-04-15T04:05:02;83.90;;;33.80;;
18796;SDS011;9526;52.612;13.300;2023-04-15T04:07:26;90.10;;;36.08;;
18796;SDS011;9526;52.612;13.300;2023-04-15T04:09:50;90.22;;;34.28;;
18796;SDS011;9526;52.612;13.300;2023-04-15T04:12:14;81.72;;;35.42;;
18796;SDS011;9526;52.612;13.300;2023-04-15T04:14:39;78.32;;;34.08;;
18796;SDS011;9526;52.612;13.300;2023-04-15T04:17:02;73.00;;;32.17;;
18796;SDS011;9526;52.612;13.300;2023-04-15T04:19:26;84.30;;;34.55;;
18796;SDS011;9526;52.612;13.300;2023-04-15T04:21:50;85.00;;;34.25;;
18796;SDS011;9526;52.612;13.300;2023-04-15T04:24:14;77.60;;;32.90;;
18796;SDS011;9526;52.612;13.300;2023-04-15T04:26:37;79.20;;;32.63;;
18796;SDS011;9526;52.612;13.300;2023-04-15T04:29:01;86.88;;;33.92;;
18796;SDS011;9526;52.612;13.300;2023-04-15T04:31:26;79.53;;;33.47;;
18796;SDS011;9526;52.612;13.300;2023-04-15T04:33:50;76.68;;;32.35;;
18796;SDS011;9526;52.612;13.300;2023-04-15T04:36:14;75.95;;;32.30;;
18796;SDS011;9526;52.612;13.300;2023-04-15T04:38:37;79.18;;;31.85;;
18796;SDS011;9526;52.612;13.300;2023-04-15T04:41:01;80.00;;;32.65;;
18796;SDS011;9526;52.612;13.300;2023-04-15T04:43:24;76.28;;;32.28;;
18796;SDS011;9526;52.612;13.300;2023-04-15T04:45:48;81.07;;;34.13;;
18796;SDS011;9526;52.612;13.300;2023-04-15T04:48:14;76.45;;;32.33;;
18796;SDS011;9526;52.612;13.300;2023-04-15T04:50:37;71.07;;;32.47;;
18796;SDS011;9526;52.612;13.300;2023-04-15T04:53:01;75.53;;;31.73;;
18796;SDS011;9526;52.612;13.300;2023-04-15T04:55:25;79.03;;;33.50;;
18796;SDS011;9526;52.612;13.300;2023-04-15T04:57:48;78.03;;;33.13;;
18796;SDS011;9526;52.612;13.300;2023-04-15T05:00:12;80.60;;;33.00;;
18796;SDS011;9526;52.612;13.300;2023-04-15T05:02:36;74.10;;;31.65;;
18796;SDS011;9526;52.612;13.300;2023-04-15T05:05:01;79.30;;;33.65;;
18796;SDS011;9526;52.612;13.300;2023-04-15T05:07:25;72.57;;;33.33;;
18796;SDS011;9526;52.612;13.300;2023-04-15T05:09:49;70.47;;;32.72;;
18796;SDS011;9526;52.612;13.300;2023-04-15T05:12:12;72.75;;;31.25;;
18796;SDS011;9526;52.612;13.300;2023-04-15T05:14:36;75.82;;;32.47;;
18796;SDS011;9526;52.612;13.300;2023-04-15T05:17:00;69.95;;;31.42;;
18796;SDS011;9526;52.612;13.300;2023-04-15T05:19:23;73.45;;;31.83;;
18796;SDS011;9526;52.612;13.300;2023-04-15T05:21:49;62.28;;;28.80;;
18796;SDS011;9526;52.612;13.300;2023-04-15T05:24:12;67.85;;;31.27;;
18796;SDS011;9526;52.612;13.300;2023-04-15T05:26:36;61.42;;;30.23;;
18796;SDS011;9526;52.612;13.300;2023-04-15T05:28:59;62.35;;;29.33;;
18796;SDS011;9526;52.612;13.300;2023-04-15T05:31:23;65.20;;;29.90;;
18796;SDS011;9526;52.612;13.300;2023-04-15T05:33:47;61.05;;;28.65;;
18796;SDS011;9526;52.612;13.300;2023-04-15T05:36:11;59.28;;;28.52;;
18796;SDS011;9526;52.612;13.300;2023-04-15T05:38:35;57.10;;;27.27;;
18796;SDS011;9526;52.612;13.300;2023-04-15T05:40:59;55.38;;;27.67;;
18796;SDS011;9526;52.612;13.300;2023-04-15T05:43:23;55.33;;;28.23;;
18796;SDS011;9526;52.612;13.300;2023-04-15T05:45:46;56.55;;;27.27;;
18796;SDS011;9526;52.612;13.300;2023-04-15T05:48:10;49.88;;;27.27;;
18796;SDS011;9526;52.612;13.300;2023-04-15T05:50:34;48.05;;;24.92;;
18796;SDS011;9526;52.612;13.300;2023-04-15T05:52:57;46.55;;;24.88;;
18796;SDS011;9526;52.612;13.300;2023-04-15T05:55:22;42.90;;;24.67;;
18796;SDS011;9526;52.612;13.300;2023-04-15T05:57:46;47.15;;;25.95;;
18796;SDS011;9526;52.612;13.300;2023-04-15T06:00:10;46.40;;;24.95;;
18796;SDS011;9526;52.612;13.300;2023-04-15T06:02:35;42.30;;;24.35;;
18796;SDS011;9526;52.612;13.300;2023-04-15T06:04:59;39.95;;;24.52;;
18796;SDS011;9526;52.612;13.300;2023-04-15T06:07:24;38.47;;;23.42;;
18796;SDS011;9526;52.612;13.300;2023-04-15T06:09:47;41.92;;;23.60;;
18796;SDS011;9526;52.612;13.300;2023-04-15T06:12:13;38.50;;;22.90;;
18796;SDS011;9526;52.612;13.300;2023-04-15T06:14:37;37.28;;;21.90;;
18796;SDS011;9526;52.612;13.300;2023-04-15T06:17:01;32.40;;;20.48;;
18796;SDS011;9526;52.612;13.300;2023-04-15T06:19:24;26.35;;;19.35;;
18796;SDS011;9526;52.612;13.300;2023-04-15T06:21:48;28.58;;;19.65;;
18796;SDS011;9526;52.612;13.300;2023-04-15T06:24:12;31.23;;;19.08;;
18796;SDS011;9526;52.612;13.300;2023-04-15T06:26:35;28.02;;;17.98;;
18796;SDS011;9526;52.612;13.300;2023-04-15T06:29:00;25.85;;;17.42;;
18796;SDS011;9526;52.612;13.300;2023-04-15T06:31:24;29.13;;;17.75;;
18796;SDS011;9526;52.612;13.300;2023-04-15T06:33:48;25.02;;;16.98;;
18796;SDS011;9526;52.612;13.300;2023-04-15T06:36:11;21.58;;;16.23;;
18796;SDS011;9526;52.612;13.300;2023-04-15T06:38:35;23.42;;;16.40;;
18796;SDS011;9526;52.612;13.300;2023-04-15T06:40:59;21.70;;;15.95;;
18796;SDS011;9526;52.612;13.300;2023-04-15T06:43:23;24.25;;;16.38;;
18796;SDS011;9526;52.612;13.300;2023-04-15T06:45:48;23.77;;;16.30;;
18796;SDS011;9526;52.612;13.300;2023-04-15T06:48:11;25.77;;;16.80;;
18796;SDS011;9526;52.612;13.300;2023-04-15T06:50:35;19.80;;;15.48;;
18796;SDS011;9526;52.612;13.300;2023-04-15T06:52:59;22.45;;;16.02;;
18796;SDS011;9526;52.612;13.300;2023-04-15T06:55:22;20.90;;;15.43;;
18796;SDS011;9526;52.612;13.300;2023-04-15T06:57:46;20.15;;;14.15;;
18796;SDS011;9526;52.612;13.300;2023-04-15T07:00:10;21.63;;;14.65;;
18796;SDS011;9526;52.612;13.300;2023-04-15T07:02:36;20.42;;;14.05;;
18796;SDS011;9526;52.612;13.300;2023-04-15T07:05:00;24.38;;;14.32;;
18796;SDS011;9526;52.612;13.300;2023-04-15T07:07:24;22.30;;;14.18;;
18796;SDS011;9526;52.612;13.300;2023-04-15T07:09:48;22.40;;;14.35;;
18796;SDS011;9526;52.612;13.300;2023-04-15T07:12:11;21.30;;;13.88;;
18796;SDS011;9526;52.612;13.300;2023-04-15T07:14:35;22.85;;;14.70;;
18796;SDS011;9526;52.612;13.300;2023-04-15T07:16:59;21.10;;;15.27;;
18796;SDS011;9526;52.612;13.300;2023-04-15T07:19:24;23.33;;;14.55;;
18796;SDS011;9526;52.612;13.300;2023-04-15T07:21:48;19.35;;;14.07;;
18796;SDS011;9526;52.612;13.300;2023-04-15T07:24:11;23.65;;;14.80;;
18796;SDS011;9526;52.612;13.300;2023-04-15T07:26:37;26.10;;;15.25;;
18796;SDS011;9526;52.612;13.300;2023-04-15T07:29:01;18.85;;;14.52;;
18796;SDS011;9526;52.612;13.300;2023-04-15T07:31:25;21.27;;;14.52;;
18796;SDS011;9526;52.612;13.300;2023-04-15T07:33:49;21.42;;;14.43;;
18796;SDS011;9526;52.612;13.300;2023-04-15T07:36:13;22.45;;;15.48;;
18796;SDS011;9526;52.612;13.300;2023-04-15T07:38:38;22.98;;;15.88;;
18796;SDS011;9526;52.612;13.300;2023-04-15T07:41:02;22.17;;;15.45;;
18796;SDS011;9526;52.612;13.300;2023-04-15T07:43:26;22.80;;;15.48;;
18796;SDS011;9526;52.612;13.300;2023-04-15T07:45:49;23.80;;;15.57;;
18796;SDS011;9526;52.612;13.300;2023-04-15T07:48:13;21.75;;;15.23;;
18796;SDS011;9526;52.612;13.300;2023-04-15T07:50:37;19.42;;;14.73;;
18796;SDS011;9526;52.612;13.300;2023-04-15T07:53:02;21.40;;;15.70;;
18796;SDS011;9526;52.612;13.300;2023-04-15T07:55:26;24.77;;;16.00;;
18796;SDS011;9526;52.612;13.300;2023-04-15T07:57:51;25.75;;;16.50;;
18796;SDS011;9526;52.612;13.300;2023-04-15T08:00:15;22.35;;;16.88;;
18796;SDS011;9526;52.612;13.300;2023-04-15T08:02:39;19.08;;;15.38;;
18796;SDS011;9526;52.612;13.300;2023-04-15T08:05:03;20.95;;;16.17;;
18796;SDS011;9526;52.612;13.300;2023-04-15T08:07:28;23.38;;;16.38;;
18796;SDS011;9526;52.612;13.300;2023-04-15T08:09:53;21.85;;;15.73;;
18796;SDS011;9526;52.612;13.300;2023-04-15T08:12:17;22.42;;;16.10;;
18796;SDS011;9526;52.612;13.300;2023-04-15T08:14:41;21.40;;;16.25;;
18796;SDS011;9526;52.612;13.300;2023-04-15T08:17:04;22.20;;;16.60;;
18796;SDS011;9526;52.612;13.300;2023-04-15T08:19:28;20.48;;;15.52;;
18796;SDS011;9526;52.612;13.300;2023-04-15T08:21:52;21.13;;;15.45;;
18796;SDS011;9526;52.612;13.300;2023-04-15T08:24:16;26.25;;;16.77;;
18796;SDS011;9526;52.612;13.300;2023-04-15T08:26:41;22.73;;;15.82;;
18796;SDS011;9526;52.612;13.300;2023-04-15T08:29:05;23.50;;;16.75;;
18796;SDS011;9526;52.612;13.300;2023-04-15T08:31:28;21.73;;;15.95;;
18796;SDS011;9526;52.612;13.300;2023-04-15T08:33:52;23.13;;;16.30;;
18796;SDS011;9526;52.612;13.300;2023-04-15T08:36:17;22.77;;;16.60;;
18796;SDS011;9526;52.612;13.300;2023-04-15T08:38:41;24.05;;;17.45;;
18796;SDS011;9526;52.612;13.300;2023-04-15T08:41:07;28.77;;;17.25;;
18796;SDS011;9526;52.612;13.300;2023-04-15T08:43:44;23.90;;;16.85;;
18796;SDS011;9526;52.612;13.300;2023-04-15T08:46:14;22.23;;;17.63;;
18796;SDS011;9526;52.612;13.300;2023-04-15T08:48:38;23.75;;;16.75;;
18796;SDS011;9526;52.612;13.300;2023-04-15T08:51:02;22.30;;;17.02;;
18796;SDS011;9526;52.612;13.300;2023-04-15T08:53:27;20.77;;;16.38;;
18796;SDS011;9526;52.612;13.300;2023-04-15T08:55:51;22.75;;;16.33;;
18796;SDS011;9526;52.612;13.300;2023-04-15T08:58:20;23.48;;;16.83;;
18796;SDS011;9526;52.612;13.300;2023-04-15T09:00:45;23.35;;;16.65;;
18796;SDS011;9526;52.612;13.300;2023-04-15T09:03:09;22.60;;;17.20;;
18796;SDS011;9526;52.612;13.300;2023-04-15T09:05:33;23.90;;;16.42;;
18796;SDS011;9526;52.612;13.300;2023-04-15T09:07:58;22.77;;;16.70;;
18796;SDS011;9526;52.612;13.300;2023-04-15T09:10:22;22.95;;;16.70;;
18796;SDS011;9526;52.612;13.300;2023-04-15T09:12:45;21.88;;;16.40;;
18796;SDS011;9526;52.612;13.300;2023-04-15T09:15:10;21.40;;;16.83;;
18796;SDS011;9526;52.612;13.300;2023-04-15T09:17:36;23.25;;;17.65;;
18796;SDS011;9526;52.612;13.300;2023-04-15T09:20:08;22.63;;;16.65;;
18796;SDS011;9526;52.612;13.300;2023-04-15T09:22:34;21.13;;;15.85;;
18796;SDS011;9526;52.612;13.300;2023-04-15T09:24:58;21.02;;;15.30;;
18796;SDS011;9526;52.612;13.300;2023-04-15T09:27:22;21.90;;;16.40;;
18796;SDS011;9526;52.612;13.300;2023-04-15T09:29:48;21.58;;;16.52;;
18796;SDS011;9526;52.612;13.300;2023-04-15T09:32:13;19.98;;;15.68;;
18796;SDS011;9526;52.612;13.300;2023-04-15T09:34:39;22.13;;;16.35;;
18796;SDS011;9526;52.612;13.300;2023-04-15T09:37:03;23.17;;;16.25;;
18796;SDS011;9526;52.612;13.300;2023-04-15T09:39:29;19.95;;;15.45;;
18796;SDS011;9526;52.612;13.300;2023-04-15T09:42:11;19.67;;;15.85;;
18796;SDS011;9526;52.612;13.300;2023-04-15T09:44:35;25.50;;;16.25;;
18796;SDS011;9526;52.612;13.300;2023-04-15T09:46:59;20.95;;;15.98;;
18796;SDS011;9526;52.612;13.300;2023-04-15T09:49:22;23.73;;;16.48;;
18796;SDS011;9526;52.612;13.300;2023-04-15T09:51:47;21.40;;;15.50;;
18796;SDS011;9526;52.612;13.300;2023-04-15T09:54:31;22.08;;;16.63;;
18796;SDS011;9526;52.612;13.300;2023-04-15T09:57:03;20.65;;;16.10;;
18796;SDS011;9526;52.612;13.300;2023-04-15T09:59:28;23.75;;;16.02;;
18796;SDS011;9526;52.612;13.300;2023-04-15T10:01:52;23.40;;;17.15;;
18796;SDS011;9526;52.612;13.300;2023-04-15T10:04:16;22.40;;;17.10;;
18796;SDS011;9526;52.612;13.300;2023-04-15T10:06:40;21.38;;;16.63;;
18796;SDS011;9526;52.612;13.300;2023-04-15T10:09:05;24.73;;;16.98;;
18796;SDS011;9526;52.612;13.300;2023-04-15T10:11:30;20.45;;;16.52;;
18796;SDS011;9526;52.612;13.300;2023-04-15T10:13:55;24.13;;;17.58;;
18796;SDS011;9526;52.612;13.300;2023-04-15T10:16:19;21.00;;;17.33;;
18796;SDS011;9526;52.612;13.300;2023-04-15T10:18:45;21.73;;;16.80;;
18796;SDS011;9526;52.612;13.300;2023-04-15T10:21:13;23.95;;;17.13;;
18796;SDS011;9526;52.612;13.300;2023-04-15T10:23:39;22.42;;;17.05;;
18796;SDS011;9526;52.612;13.300;2023-04-15T10:26:04;22.55;;;17.70;;
18796;SDS011;9526;52.612;13.300;2023-04-15T10:28:29;23.05;;;17.55;;
18796;SDS011;9526;52.612;13.300;2023-04-15T10:30:53;25.88;;;18.63;;
18796;SDS011;9526;52.612;13.300;2023-04-15T10:33:18;24.17;;;17.77;;
18796;SDS011;9526;52.612;13.300;2023-04-15T10:35:44;25.98;;;17.85;;
18796;SDS011;9526;52.612;13.300;2023-04-15T10:41:14;23.73;;;18.55;;
18796;SDS011;9526;52.612;13.300;2023-04-15T10:43:46;22.23;;;17.55;;
18796;SDS011;9526;52.612;13.300;2023-04-15T10:46:15;23.20;;;17.55;;
18796;SDS011;9526;52.612;13.300;2023-04-15T10:48:45;23.52;;;17.58;;
18796;SDS011;9526;52.612;13.300;2023-04-15T10:51:12;21.35;;;17.08;;
18796;SDS011;9526;52.612;13.300;2023-04-15T10:53:36;24.20;;;17.02;;
18796;SDS011;9526;52.612;13.300;2023-04-15T10:56:00;27.63;;;18.58;;
18796;SDS011;9526;52.612;13.300;2023-04-15T10:58:27;24.55;;;17.08;;
18796;SDS011;9526;52.612;13.300;2023-04-15T11:01:04;24.75;;;17.98;;
18796;SDS011;9526;52.612;13.300;2023-04-15T11:03:37;22.45;;;17.38;;
18796;SDS011;9526;52.612;13.300;2023-04-15T11:06:04;25.60;;;17.20;;
18796;SDS011;9526;52.612;13.300;2023-04-15T11:11:19;23.40;;;17.50;;
18796;SDS011;9526;52.612;13.300;2023-04-15T11:13:47;24.17;;;17.48;;
18796;SDS011;9526;52.612;13.300;2023-04-15T11:16:13;23.00;;;17.00;;
18796;SDS011;9526;52.612;13.300;2023-04-15T11:18:37;22.73;;;16.70;;
18796;SDS011;9526;52.612;13.300;2023-04-15T11:21:01;21.80;;;16.92;;
18796;SDS011;9526;52.612;13.300;2023-04-15T11:23:28;22.52;;;16.80;;
18796;SDS011;9526;52.612;13.300;2023-04-15T11:25:55;21.95;;;16.42;;
18796;SDS011;9526;52.612;13.300;2023-04-15T11:28:19;23.58;;;16.58;;
18796;SDS011;9526;52.612;13.300;2023-04-15T11:30:49;24.60;;;16.95;;
18796;SDS011;9526;52.612;13.300;2023-04-15T11:33:13;21.20;;;16.45;;
18796;SDS011;9526;52.612;13.300;2023-04-15T11:35:36;21.90;;;17.15;;
18796;SDS011;9526;52.612;13.300;2023-04-15T11:38:01;23.67;;;17.55;;
18796;SDS011;9526;52.612;13.300;2023-04-15T11:40:27;24.33;;;16.45;;
18796;SDS011;9526;52.612;13.300;2023-04-15T11:43:02;19.33;;;15.20;;
18796;SDS011;9526;52.612;13.300;2023-04-15T11:45:27;29.25;;;18.52;;
18796;SDS011;9526;52.612;13.300;2023-04-15T11:47:52;24.92;;;17.40;;
18796;SDS011;9526;52.612;13.300;2023-04-15T11:50:16;25.90;;;16.42;;
18796;SDS011;9526;52.612;13.300;2023-04-15T11:52:42;21.95;;;16.17;;
18796;SDS011;9526;52.612;13.300;2023-04-15T11:55:15;24.85;;;16.60;;
18796;SDS011;9526;52.612;13.300;2023-04-15T11:57:39;31.98;;;18.08;;
18796;SDS011;9526;52.612;13.300;2023-04-15T12:00:03;20.73;;;15.75;;
18796;SDS011;9526;52.612;13.300;2023-04-15T12:02:30;28.85;;;17.17;;
18796;SDS011;9526;52.612;13.300;2023-04-15T12:05:02;22.63;;;15.30;;
18796;SDS011;9526;52.612;13.300;2023-04-15T12:07:27;21.85;;;13.82;;
18796;SDS011;9526;52.612;13.300;2023-04-15T12:09:53;21.15;;;14.38;;
18796;SDS011;9526;52.612;13.300;2023-04-15T12:12:19;27.70;;;16.30;;
18796;SDS011;9526;52.612;13.300;2023-04-15T12:14:42;20.10;;;14.38;;
18796;SDS011;9526;52.612;13.300;2023-04-15T12:17:06;22.33;;;15.18;;
18796;SDS011;9526;52.612;13.300;2023-04-15T12:19:34;22.08;;;14.57;;
18796;SDS011;9526;52.612;13.300;2023-04-15T12:22:02;21.33;;;15.18;;
18796;SDS011;9526;52.612;13.300;2023-04-15T12:24:29;23.63;;;14.98;;
18796;SDS011;9526;52.612;13.300;2023-04-15T12:26:55;18.77;;;14.73;;
18796;SDS011;9526;52.612;13.300;2023-04-15T12:29:23;19.88;;;14.77;;
18796;SDS011;9526;52.612;13.300;2023-04-15T12:31:49;17.63;;;14.13;;
18796;SDS011;9526;52.612;13.300;2023-04-15T12:34:14;20.77;;;14.13;;
18796;SDS011;9526;52.612;13.300;2023-04-15T12:36:37;22.00;;;15.13;;
18796;SDS011;9526;52.612;13.300;2023-04-15T12:39:03;20.10;;;14.55;;
18796;SDS011;9526;52.612;13.300;2023-04-15T12:41:27;20.33;;;14.68;;
18796;SDS011;9526;52.612;13.300;2023-04-15T12:43:50;19.98;;;14.50;;
18796;SDS011;9526;52.612;13.300;2023-04-15T12:46:14;21.35;;;14.80;;
18796;SDS011;9526;52.612;13.300;2023-04-15T12:48:38;20.83;;;15.32;;
18796;SDS011;9526;52.612;13.300;2023-04-15T12:51:02;21.35;;;15.30;;
18796;SDS011;9526;52.612;13.300;2023-04-15T12:53:26;22.75;;;15.90;;
18796;SDS011;9526;52.612;13.300;2023-04-15T12:55:51;22.27;;;16.27;;
18796;SDS011;9526;52.612;13.300;2023-04-15T12:58:14;20.88;;;14.60;;
18796;SDS011;9526;52.612;13.300;2023-04-15T13:00:38;22.55;;;17.05;;
18796;SDS011;9526;52.612;13.300;2023-04-15T13:03:02;20.70;;;16.10;;
18796;SDS011;9526;52.612;13.300;2023-04-15T13:05:27;23.50;;;17.33;;
18796;SDS011;9526;52.612;13.300;2023-04-15T13:07:51;22.75;;;16.33;;
18796;SDS011;9526;52.612;13.300;2023-04-15T13:10:14;23.52;;;16.85;;
18796;SDS011;9526;52.612;13.300;2023-04-15T13:12:40;24.92;;;16.92;;
18796;SDS011;9526;52.612;13.300;2023-04-15T13:15:04;22.40;;;16.73;;
18796;SDS011;9526;52.612;13.300;2023-04-15T13:17:31;25.40;;;16.80;;
18796;SDS011;9526;52.612;13.300;2023-04-15T13:19:54;24.48;;;17.20;;
18796;SDS011;9526;52.612;13.300;2023-04-15T13:22:18;20.92;;;16.08;;
18796;SDS011;9526;52.612;13.300;2023-04-15T13:24:42;24.95;;;18.00;;
18796;SDS011;9526;52.612;13.300;2023-04-15T13:27:05;22.73;;;16.38;;
18796;SDS011;9526;52.612;13.300;2023-04-15T13:29:30;22.27;;;17.30;;
18796;SDS011;9526;52.612;13.300;2023-04-15T13:31:54;22.02;;;17.23;;
18796;SDS011;9526;52.612;13.300;2023-04-15T13:34:18;25.75;;;17.30;;
18796;SDS011;9526;52.612;13.300;2023-04-15T13:36:42;24.45;;;17.05;;
18796;SDS011;9526;52.612;13.300;2023-04-15T13:39:06;26.05;;;17.92;;
18796;SDS011;9526;52.612;13.300;2023-04-15T13:41:30;22.92;;;17.08;;
18796;SDS011;9526;52.612;13.300;2023-04-15T13:43:53;22.15;;;17.00;;
18796;SDS011;9526;52.612;13.300;2023-04-15T13:46:20;23.63;;;16.52;;
18796;SDS011;9526;52.612;13.300;2023-04-15T13:48:43;23.80;;;17.27;;
18796;SDS011;9526;52.612;13.300;2023-04-15T13:51:07;23.40;;;16.52;;
18796;SDS011;9526;52.612;13.300;2023-04-15T13:53:31;23.30;;;17.35;;
18796;SDS011;9526;52.612;13.300;2023-04-15T13:55:59;23.08;;;16.13;;
18796;SDS011;9526;52.612;13.300;2023-04-15T13:58:23;20.88;;;16.73;;
18796;SDS011;9526;52.612;13.300;2023-04-15T14:00:47;23.95;;;18.05;;
18796;SDS011;9526;52.612;13.300;2023-04-15T14:03:12;23.25;;;17.20;;
18796;SDS011;9526;52.612;13.300;2023-04-15T14:05:36;19.90;;;15.48;;
18796;SDS011;9526;52.612;13.300;2023-04-15T14:08:00;20.75;;;16.25;;
18796;SDS011;9526;52.612;13.300;2023-04-15T14:10:23;19.38;;;15.38;;
18796;SDS011;9526;52.612;13.300;2023-04-15T14:12:47;21.77;;;15.18;;